createdAt,value
2022-10-30T00:00:25.325Z,11.13
2022-10-30T00:02:52.534Z,11.08
2022-10-30T00:05:19.924Z,10.98
2022-10-30T00:07:47.584Z,10.96
2022-10-30T00:10:15.027Z,10.94
2022-10-30T00:12:41.783Z,10.93
2022-10-30T00:15:09.127Z,10.99
2022-10-30T00:17:36.073Z,11.04
2022-10-30T00:20:03.376Z,11.08
2022-10-30T00:22:29.976Z,11.06
2022-10-30T00:24:56.514Z,10.98
2022-10-30T00:27:23.072Z,11.02
2022-10-30T00:29:49.610Z,10.96
2022-10-30T00:32:16.331Z,10.97
2022-10-30T00:34:43.071Z,11.02
2022-10-30T00:37:09.742Z,11.02
2022-10-30T00:39:38.125Z,11.04
2022-10-30T00:42:04.827Z,11.04
2022-10-30T00:44:48.676Z,10.99
2022-10-30T00:47:23.416Z,10.94
2022-10-30T00:49:52.614Z,10.97
2022-10-30T00:52:22.218Z,10.99
2022-10-30T00:54:49.733Z,11.00
2022-10-30T00:57:16.681Z,11.06
2022-10-30T00:59:45.512Z,11.10
2022-10-30T01:02:12.294Z,11.07
2022-10-30T01:05:06.334Z,11.09
2022-10-30T01:07:32.977Z,11.09
2022-10-30T01:09:59.736Z,11.11
2022-10-30T01:12:26.575Z,11.14
2022-10-30T01:14:56.474Z,11.15
2022-10-30T01:17:48.323Z,11.18
2022-10-30T01:20:52.781Z,11.20
2022-10-30T01:23:43.126Z,11.16
2022-10-30T01:26:22.390Z,11.16
2022-10-30T01:28:52.157Z,11.13
2022-10-30T01:31:33.186Z,11.16
2022-10-30T01:34:10.007Z,11.14
2022-10-30T01:37:02.758Z,11.19
2022-10-30T01:39:40.784Z,11.11
2022-10-30T01:42:30.643Z,11.07
2022-10-30T01:44:57.777Z,10.93
2022-10-30T01:47:27.002Z,10.91
2022-10-30T01:50:38.929Z,10.86
2022-10-30T01:53:19.612Z,10.91
2022-10-30T01:56:12.366Z,10.97
2022-10-30T01:58:52.033Z,10.95
2022-10-30T02:01:21.668Z,10.92
2022-10-30T02:03:48.790Z,10.97
2022-10-30T02:06:15.657Z,11.01
2022-10-30T02:08:42.296Z,11.05
2022-10-30T02:11:10.483Z,11.05
2022-10-30T02:13:41.042Z,11.00
2022-10-30T02:16:09.528Z,11.05
2022-10-30T02:18:36.197Z,11.11
2022-10-30T02:21:03.298Z,11.12
2022-10-30T02:23:29.937Z,11.12
2022-10-30T02:25:56.531Z,10.99
2022-10-30T02:28:23.029Z,10.73
2022-10-30T02:30:49.705Z,10.83
2022-10-30T02:35:48.371Z,11.06
2022-10-30T02:38:15.010Z,11.01
2022-10-30T02:40:41.797Z,11.10
2022-10-30T02:43:08.368Z,10.97
2022-10-30T02:45:35.048Z,10.96
2022-10-30T02:48:02.508Z,11.03
2022-10-30T02:50:30.247Z,11.15
2022-10-30T02:52:59.067Z,11.33
2022-10-30T02:55:27.085Z,11.37
2022-10-30T02:57:54.826Z,11.41
2022-10-30T03:00:22.287Z,11.42
2022-10-30T03:02:48.881Z,11.42
2022-10-30T03:05:15.630Z,11.35
2022-10-30T03:07:42.220Z,11.42
2022-10-30T03:10:09.305Z,11.48
2022-10-30T03:12:35.825Z,11.44
2022-10-30T03:15:02.441Z,11.45
2022-10-30T03:17:29.093Z,11.50
2022-10-30T03:19:55.839Z,11.35
2022-10-30T03:22:22.619Z,11.08
2022-10-30T03:24:49.252Z,11.02
2022-10-30T03:27:16.325Z,10.95
2022-10-30T03:29:42.938Z,10.90
2022-10-30T03:32:11.087Z,10.92
2022-10-30T03:34:45.337Z,10.76
2022-10-30T03:37:11.908Z,10.90
2022-10-30T03:39:38.734Z,11.06
2022-10-30T03:42:05.494Z,11.19
2022-10-30T03:44:32.004Z,11.32
2022-10-30T03:46:58.789Z,11.39
2022-10-30T03:49:45.384Z,11.29
2022-10-30T03:52:16.857Z,11.49
2022-10-30T03:54:43.451Z,11.57
2022-10-30T03:57:12.794Z,11.77
2022-10-30T03:59:48.713Z,11.84
2022-10-30T04:02:34.363Z,11.97
2022-10-30T04:05:01.066Z,12.00
2022-10-30T04:07:27.637Z,12.08
2022-10-30T04:09:54.426Z,12.14
2022-10-30T04:12:21.027Z,12.15
2022-10-30T04:14:47.713Z,12.18
2022-10-30T04:17:14.333Z,12.19
2022-10-30T04:19:40.968Z,12.14
2022-10-30T04:22:07.644Z,12.21
2022-10-30T04:24:35.300Z,12.14
2022-10-30T04:27:02.310Z,11.98
2022-10-30T04:29:28.891Z,11.95
2022-10-30T04:31:55.454Z,11.86
2022-10-30T04:34:22.824Z,11.85
2022-10-30T04:36:49.365Z,11.70
2022-10-30T04:39:16.050Z,11.55
2022-10-30T04:41:43.340Z,11.52
2022-10-30T04:44:16.255Z,11.43
2022-10-30T04:46:42.849Z,11.45
2022-10-30T04:49:10.508Z,11.29
2022-10-30T04:51:37.147Z,11.42
2022-10-30T04:54:05.559Z,11.49
2022-10-30T04:56:32.290Z,11.37
2022-10-30T04:58:59.582Z,11.36
2022-10-30T05:01:26.312Z,11.42
2022-10-30T05:03:54.736Z,11.53
2022-10-30T05:06:28.357Z,11.69
2022-10-30T05:08:54.922Z,11.75
2022-10-30T05:11:40.619Z,11.78
2022-10-30T05:14:08.005Z,11.72
2022-10-30T05:16:34.544Z,11.65
2022-10-30T05:19:03.573Z,11.60
2022-10-30T05:21:30.358Z,11.45
2022-10-30T05:23:58.041Z,11.47
2022-10-30T05:26:25.261Z,11.31
2022-10-30T05:28:52.680Z,11.17
2022-10-30T05:31:19.326Z,11.04
2022-10-30T05:34:07.324Z,11.06
2022-10-30T05:36:37.434Z,10.88
2022-10-30T05:39:04.093Z,10.88
2022-10-30T05:41:34.813Z,10.90
2022-10-30T05:44:01.537Z,10.84
2022-10-30T05:46:28.124Z,10.96
2022-10-30T05:48:57.113Z,10.89
2022-10-30T05:51:24.532Z,10.89
2022-10-30T05:53:55.121Z,10.93
2022-10-30T05:56:25.672Z,10.95
2022-10-30T05:58:52.289Z,11.02
2022-10-30T06:01:19.239Z,11.05
2022-10-30T06:03:50.062Z,11.02
2022-10-30T06:06:16.644Z,11.00
2022-10-30T06:08:44.114Z,10.99
2022-10-30T06:11:29.668Z,11.02
2022-10-30T06:13:59.161Z,10.70
2022-10-30T06:16:43.419Z,10.92
2022-10-30T06:19:20.292Z,10.76
2022-10-30T06:21:50.137Z,10.83
2022-10-30T06:24:33.903Z,10.84
2022-10-30T06:27:20.829Z,10.87
2022-10-30T06:29:47.824Z,10.58
2022-10-30T06:32:14.344Z,10.69
2022-10-30T06:34:42.898Z,10.66
2022-10-30T06:37:09.980Z,10.63
2022-10-30T06:39:38.321Z,10.65
2022-10-30T06:42:46.982Z,10.90
2022-10-30T06:45:26.625Z,10.91
2022-10-30T06:47:53.205Z,10.95
2022-10-30T06:50:21.537Z,10.98
2022-10-30T06:52:48.151Z,11.11
2022-10-30T06:55:15.234Z,10.87
2022-10-30T06:57:57.848Z,11.17
2022-10-30T07:00:41.166Z,11.11
2022-10-30T07:03:20.779Z,11.08
2022-10-30T07:05:47.732Z,11.22
2022-10-30T07:08:14.529Z,11.29
2022-10-30T07:10:42.095Z,11.31
2022-10-30T07:13:43.909Z,11.38
2022-10-30T07:16:33.565Z,11.23
2022-10-30T07:19:03.662Z,11.21
2022-10-30T07:21:32.165Z,11.33
2022-10-30T07:24:00.212Z,11.30
2022-10-30T07:26:33.650Z,11.58
2022-10-30T07:29:06.622Z,11.52
2022-10-30T07:31:49.763Z,11.73
2022-10-30T07:34:51.093Z,11.45
2022-10-30T07:37:29.546Z,11.35
2022-10-30T07:40:12.476Z,11.65
2022-10-30T07:43:00.069Z,11.89
2022-10-30T07:45:41.282Z,12.13
2022-10-30T07:48:34.024Z,12.23
2022-10-30T07:51:23.428Z,12.37
2022-10-30T07:53:50.109Z,12.31
2022-10-30T07:56:16.965Z,12.26
2022-10-30T07:58:55.274Z,12.33
2022-10-30T08:01:33.645Z,12.37
2022-10-30T08:04:16.788Z,12.47
2022-10-30T08:06:43.740Z,12.53
2022-10-30T08:09:10.589Z,12.46
2022-10-30T08:11:37.250Z,12.54
2022-10-30T08:14:04.591Z,12.19
2022-10-30T08:16:31.448Z,12.43
2022-10-30T08:18:58.459Z,12.26
2022-10-30T08:21:25.690Z,11.98
2022-10-30T08:23:58.743Z,12.33
2022-10-30T08:26:28.018Z,12.36
2022-10-30T08:28:54.559Z,12.47
2022-10-30T08:31:22.835Z,12.52
2022-10-30T08:34:01.732Z,12.64
2022-10-30T08:36:46.896Z,12.74
2022-10-30T08:39:17.304Z,12.76
2022-10-30T08:42:09.976Z,12.88
2022-10-30T08:44:42.239Z,12.91
2022-10-30T08:47:38.263Z,13.22
2022-10-30T08:50:06.972Z,13.20
2022-10-30T08:52:34.941Z,13.40
2022-10-30T08:55:01.645Z,13.36
2022-10-30T08:57:35.222Z,13.59
2022-10-30T09:00:01.923Z,13.84
2022-10-30T09:03:06.892Z,13.96
2022-10-30T09:05:39.195Z,13.89
2022-10-30T09:08:17.930Z,14.16
2022-10-30T09:11:16.842Z,14.22
2022-10-30T09:13:43.554Z,14.60
2022-10-30T09:16:11.278Z,14.72
2022-10-30T09:18:38.508Z,15.11
2022-10-30T09:21:05.599Z,15.39
2022-10-30T09:23:40.088Z,15.77
2022-10-30T09:26:25.313Z,16.14
2022-10-30T09:28:58.859Z,16.18
2022-10-30T09:31:40.957Z,16.23
2022-10-30T09:34:09.687Z,16.80
2022-10-30T09:36:50.198Z,16.99
2022-10-30T09:39:18.101Z,17.05
2022-10-30T09:42:06.904Z,17.14
2022-10-30T09:45:23.297Z,17.52
2022-10-30T09:48:03.652Z,17.87
2022-10-30T09:51:00.904Z,17.97
2022-10-30T09:53:40.591Z,18.04
2022-10-30T09:56:42.481Z,18.18
2022-10-30T09:59:37.331Z,18.27
2022-10-30T10:02:10.066Z,18.18
2022-10-30T10:04:42.833Z,18.27
2022-10-30T10:07:22.397Z,18.44
2022-10-30T10:09:56.751Z,18.56
2022-10-30T10:12:48.962Z,18.63
2022-10-30T10:15:41.658Z,18.82
2022-10-30T10:18:38.848Z,18.85
2022-10-30T10:21:27.041Z,18.88
2022-10-30T10:24:00.372Z,18.84
2022-10-30T10:26:50.014Z,18.85
2022-10-30T10:29:42.527Z,19.10
2022-10-30T10:32:31.835Z,19.08
2022-10-30T10:35:23.295Z,19.03
2022-10-30T10:38:02.268Z,19.16
2022-10-30T10:40:53.987Z,19.24
2022-10-30T10:43:41.006Z,19.37
2022-10-30T10:46:16.290Z,19.38
2022-10-30T10:48:45.621Z,19.43
2022-10-30T10:51:25.686Z,19.26
2022-10-30T10:54:00.807Z,19.49
2022-10-30T10:56:48.494Z,19.48
2022-10-30T10:59:26.561Z,19.54
2022-10-30T11:02:03.176Z,19.56
2022-10-30T11:04:39.038Z,19.54
2022-10-30T11:07:29.395Z,19.72
2022-10-30T11:09:58.040Z,19.48
2022-10-30T11:12:36.968Z,19.51
2022-10-30T11:15:19.725Z,19.32
2022-10-30T11:17:58.513Z,19.48
2022-10-30T11:20:37.213Z,19.67
2022-10-30T11:23:24.380Z,19.67
2022-10-30T11:25:51.058Z,19.60
2022-10-30T11:28:56.861Z,19.72
2022-10-30T11:31:35.470Z,19.85
2022-10-30T11:34:30.636Z,19.70
2022-10-30T11:36:57.382Z,19.79
2022-10-30T11:39:29.315Z,19.65
2022-10-30T11:42:25.604Z,19.58
2022-10-30T11:44:52.382Z,19.60
2022-10-30T11:47:22.531Z,19.56
2022-10-30T11:49:56.651Z,19.37
2022-10-30T11:52:25.313Z,19.15
2022-10-30T11:54:58.724Z,19.00
2022-10-30T11:57:50.522Z,19.10
2022-10-30T12:00:19.588Z,19.22
2022-10-30T12:02:48.267Z,19.44
2022-10-30T12:05:34.670Z,19.51
2022-10-30T12:08:07.328Z,19.84
2022-10-30T12:10:46.380Z,20.09
2022-10-30T12:13:21.757Z,20.21
2022-10-30T12:16:05.785Z,19.98
2022-10-30T12:18:33.715Z,19.99
2022-10-30T12:21:01.967Z,19.76
2022-10-30T12:23:29.483Z,20.12
2022-10-30T12:25:59.893Z,19.98
2022-10-30T12:28:29.486Z,20.27
2022-10-30T12:31:35.061Z,20.24
2022-10-30T12:36:48.018Z,20.66
2022-10-30T12:39:30.514Z,20.71
2022-10-30T12:42:03.485Z,20.61
2022-10-30T12:44:36.500Z,20.75
2022-10-30T12:47:17.671Z,20.41
2022-10-30T12:49:50.285Z,20.84
2022-10-30T12:52:24.670Z,21.07
2022-10-30T12:55:09.690Z,21.12
2022-10-30T12:57:41.779Z,20.95
2022-10-30T13:00:13.972Z,20.99
2022-10-30T13:03:11.465Z,21.17
2022-10-30T13:08:32.219Z,21.22
2022-10-30T13:11:13.926Z,21.12
2022-10-30T13:13:50.064Z,21.13
2022-10-30T13:16:22.040Z,21.19
2022-10-30T13:18:48.916Z,21.33
2022-10-30T13:21:24.087Z,21.41
2022-10-30T13:24:26.302Z,21.40
2022-10-30T13:27:00.277Z,21.43
2022-10-30T13:29:40.989Z,21.53
2022-10-30T13:32:29.163Z,21.43
2022-10-30T13:35:00.848Z,21.28
2022-10-30T13:37:32.474Z,21.20
2022-10-30T13:40:20.783Z,21.23
2022-10-30T13:42:56.245Z,21.28
2022-10-30T13:45:47.393Z,21.43
2022-10-30T13:48:48.008Z,21.40
2022-10-30T13:51:23.835Z,21.23
2022-10-30T13:54:02.108Z,21.22
2022-10-30T13:56:29.510Z,21.06
2022-10-30T13:59:05.809Z,21.07
2022-10-30T14:01:38.349Z,20.96
2022-10-30T14:04:15.829Z,20.88
2022-10-30T14:06:53.812Z,20.84
2022-10-30T14:09:32.725Z,20.90
2022-10-30T14:12:41.019Z,20.81
2022-10-30T14:15:18.833Z,20.96
2022-10-30T14:18:13.241Z,21.02
2022-10-30T14:20:40.749Z,21.14
2022-10-30T14:23:13.374Z,20.91
2022-10-30T14:25:40.480Z,20.61
2022-10-30T14:28:19.722Z,20.92
2022-10-30T14:30:46.505Z,20.90
2022-10-30T14:33:42.184Z,20.94
2022-10-30T14:36:53.160Z,20.84
2022-10-30T14:39:19.773Z,20.62
2022-10-30T14:41:55.086Z,20.61
2022-10-30T14:44:27.517Z,20.49
2022-10-30T14:47:31.754Z,20.58
2022-10-30T14:50:42.889Z,20.40
2022-10-30T14:53:41.751Z,20.27
2022-10-30T14:56:22.877Z,20.18
2022-10-30T14:59:15.215Z,19.76
2022-10-30T15:01:44.776Z,19.83
2022-10-30T15:04:22.328Z,19.67
2022-10-30T15:07:07.888Z,19.68
2022-10-30T15:10:04.451Z,19.71
2022-10-30T15:12:54.023Z,19.54
2022-10-30T15:15:23.948Z,19.17
2022-10-30T15:17:57.938Z,19.40
2022-10-30T15:20:27.015Z,19.28
2022-10-30T15:22:59.776Z,19.15
2022-10-30T15:25:34.623Z,19.07
2022-10-30T15:28:01.998Z,19.12
2022-10-30T15:30:28.811Z,19.12
2022-10-30T15:32:55.522Z,19.06
2022-10-30T15:35:27.302Z,18.95
2022-10-30T15:37:58.557Z,18.88
2022-10-30T15:40:25.704Z,18.75
2022-10-30T15:42:53.023Z,18.68
2022-10-30T15:45:23.399Z,18.64
2022-10-30T15:48:01.561Z,18.56
2022-10-30T15:50:28.664Z,18.43
2022-10-30T15:52:55.843Z,18.41
2022-10-30T15:55:28.147Z,18.22
2022-10-30T15:58:03.433Z,18.20
2022-10-30T16:00:35.049Z,17.91
2022-10-30T16:03:17.184Z,18.07
2022-10-30T16:05:44.152Z,17.88
2022-10-30T16:08:24.135Z,17.85
2022-10-30T16:10:55.059Z,17.81
2022-10-30T16:13:31.280Z,17.80
2022-10-30T16:16:00.258Z,17.72
2022-10-30T16:18:31.921Z,17.63
2022-10-30T16:21:05.608Z,17.51
2022-10-30T16:23:38.576Z,17.40
2022-10-30T16:26:05.520Z,17.26
2022-10-30T16:28:38.395Z,17.05
2022-10-30T16:31:07.939Z,17.05
2022-10-30T16:33:36.429Z,16.76
2022-10-30T16:36:05.439Z,16.91
2022-10-30T16:38:36.449Z,16.88
2022-10-30T16:41:06.000Z,16.76
2022-10-30T16:43:34.605Z,16.63
2022-10-30T16:46:13.379Z,16.58
2022-10-30T16:48:44.049Z,16.38
2022-10-30T16:51:15.443Z,16.36
2022-10-30T16:53:48.514Z,16.30
2022-10-30T16:56:24.748Z,16.15
2022-10-30T16:58:54.154Z,16.26
2022-10-30T17:01:26.320Z,16.16
2022-10-30T17:03:55.349Z,16.15
2022-10-30T17:06:42.615Z,15.93
2022-10-30T17:09:19.719Z,16.09
2022-10-30T17:12:01.374Z,16.18
2022-10-30T17:14:28.260Z,16.09
2022-10-30T17:16:57.645Z,16.13
2022-10-30T17:19:39.212Z,16.22
2022-10-30T17:22:13.649Z,16.27
2022-10-30T17:24:40.620Z,16.33
2022-10-30T17:27:29.874Z,16.31
2022-10-30T17:29:56.934Z,15.96
2022-10-30T17:32:28.202Z,15.95
2022-10-30T17:35:01.001Z,15.84
2022-10-30T17:37:28.099Z,16.05
2022-10-30T17:39:57.773Z,15.72
2022-10-30T17:42:24.663Z,15.94
2022-10-30T17:44:51.353Z,15.80
2022-10-30T17:47:19.554Z,15.83
2022-10-30T17:49:46.594Z,15.71
2022-10-30T17:52:15.307Z,15.83
2022-10-30T17:54:42.789Z,15.79
2022-10-30T17:57:14.252Z,15.74
2022-10-30T17:59:42.110Z,15.82
2022-10-30T18:02:20.433Z,16.01
2022-10-30T18:04:47.905Z,15.80
2022-10-30T18:07:16.704Z,15.96
2022-10-30T18:09:44.231Z,15.91
2022-10-30T18:12:14.690Z,15.95
2022-10-30T18:14:41.346Z,16.01
2022-10-30T18:17:09.894Z,16.05
2022-10-30T18:19:36.600Z,16.18
2022-10-30T18:22:03.210Z,16.19
2022-10-30T18:24:29.909Z,16.31
2022-10-30T18:26:56.531Z,16.19
2022-10-30T18:29:23.065Z,16.26
2022-10-30T18:31:52.090Z,16.43
2022-10-30T18:34:21.424Z,16.27
2022-10-30T18:36:48.665Z,16.40
2022-10-30T18:39:15.711Z,16.32
2022-10-30T18:41:48.793Z,16.07
2022-10-30T18:44:18.520Z,16.03
2022-10-30T18:46:45.215Z,15.88
2022-10-30T18:49:12.322Z,15.80
2022-10-30T18:51:39.923Z,15.78
2022-10-30T18:54:16.511Z,15.93
2022-10-30T18:56:43.427Z,15.94
2022-10-30T18:59:10.000Z,15.90
2022-10-30T19:01:37.438Z,15.89
2022-10-30T19:04:09.309Z,15.93
2022-10-30T19:06:35.955Z,16.01
2022-10-30T19:09:02.489Z,16.17
2022-10-30T19:11:31.947Z,16.24
2022-10-30T19:13:59.512Z,16.24
2022-10-30T19:16:26.564Z,16.21
2022-10-30T19:18:53.292Z,16.19
2022-10-30T19:21:22.467Z,16.07
2022-10-30T19:23:49.291Z,16.14
2022-10-30T19:26:15.972Z,16.13
2022-10-30T19:28:43.426Z,16.01
2022-10-30T19:31:14.164Z,15.90
2022-10-30T19:33:41.221Z,15.90
2022-10-30T19:36:24.152Z,15.80
2022-10-30T19:38:50.825Z,15.73
2022-10-30T19:41:17.381Z,15.65
2022-10-30T19:43:44.014Z,15.56
2022-10-30T19:46:11.077Z,15.46
2022-10-30T19:48:56.575Z,15.43
2022-10-30T19:51:23.794Z,15.41
2022-10-30T19:53:50.364Z,15.31
2022-10-30T19:56:19.277Z,15.42
2022-10-30T19:58:45.932Z,15.39
2022-10-30T20:01:13.192Z,15.41
2022-10-30T20:03:39.922Z,15.36
2022-10-30T20:06:07.123Z,14.95
2022-10-30T20:08:33.774Z,15.20
2022-10-30T20:11:00.712Z,15.33
2022-10-30T20:13:28.307Z,15.25
2022-10-30T20:15:56.528Z,15.25
2022-10-30T20:18:26.546Z,14.99
2022-10-30T20:20:55.425Z,15.04
2022-10-30T20:23:23.178Z,15.23
2022-10-30T20:25:52.606Z,15.03
2022-10-30T20:28:28.095Z,15.16
2022-10-30T20:30:55.532Z,15.11
2022-10-30T20:33:23.123Z,14.99
2022-10-30T20:35:50.490Z,14.89
2022-10-30T20:38:19.972Z,14.76
2022-10-30T20:40:48.235Z,14.67
2022-10-30T20:43:25.038Z,14.50
2022-10-30T20:45:51.655Z,14.40
2022-10-30T20:48:18.191Z,14.16
2022-10-30T20:50:50.407Z,14.01
2022-10-30T20:53:17.396Z,14.13
2022-10-30T20:55:45.180Z,14.13
2022-10-30T20:58:12.004Z,13.94
2022-10-30T21:00:39.414Z,13.85
2022-10-30T21:03:06.699Z,13.82
2022-10-30T21:05:49.842Z,14.01
2022-10-30T21:08:16.810Z,14.06
2022-10-30T21:10:43.382Z,14.13
2022-10-30T21:13:11.231Z,14.17
2022-10-30T21:15:39.866Z,14.02
2022-10-30T21:18:07.474Z,14.08
2022-10-30T21:20:36.212Z,13.85
2022-10-30T21:23:02.988Z,13.53
2022-10-30T21:25:29.494Z,13.39
2022-10-30T21:27:57.108Z,13.42
2022-10-30T21:30:24.305Z,13.30
2022-10-30T21:32:50.963Z,13.35
2022-10-30T21:35:18.004Z,13.43
2022-10-30T21:37:44.663Z,13.45
2022-10-30T21:40:12.087Z,13.56
2022-10-30T21:42:38.628Z,13.47
2022-10-30T21:45:05.985Z,13.54
2022-10-30T21:47:32.728Z,13.60
2022-10-30T21:49:59.299Z,13.57
2022-10-30T21:52:26.042Z,13.43
2022-10-30T21:54:52.551Z,13.46
2022-10-30T21:57:19.155Z,13.53
2022-10-30T21:59:45.740Z,13.54
2022-10-30T22:02:13.878Z,13.45
2022-10-30T22:04:40.457Z,13.45
2022-10-30T22:07:07.213Z,13.41
2022-10-30T22:09:33.707Z,13.47
2022-10-30T22:12:00.314Z,13.47
2022-10-30T22:14:26.896Z,13.39
2022-10-30T22:16:53.533Z,13.38
2022-10-30T22:19:20.072Z,13.41
2022-10-30T22:21:46.673Z,13.36
2022-10-30T22:24:13.180Z,13.36
2022-10-30T22:26:39.776Z,13.28
2022-10-30T22:29:06.339Z,13.24
2022-10-30T22:31:32.915Z,13.07
2022-10-30T22:34:01.142Z,11.99
2022-10-30T22:36:32.874Z,12.50
2022-10-30T22:39:07.545Z,12.42
2022-10-30T22:41:38.006Z,12.41
2022-10-30T22:44:06.821Z,12.32
2022-10-30T22:46:33.359Z,12.16
2022-10-30T22:49:00.107Z,12.19
2022-10-30T22:51:26.655Z,12.16
2022-10-30T22:53:59.430Z,11.98
2022-10-30T22:56:29.133Z,12.04
2022-10-30T22:58:56.506Z,11.86
2022-10-30T23:01:28.343Z,12.11
2022-10-30T23:03:56.414Z,12.10
2022-10-30T23:06:23.093Z,12.39
2022-10-30T23:08:52.819Z,12.42
2022-10-30T23:11:19.700Z,12.43
2022-10-30T23:13:46.815Z,12.32
2022-10-30T23:16:16.166Z,12.36
2022-10-30T23:18:44.145Z,12.37
2022-10-30T23:21:14.699Z,12.37
2022-10-30T23:23:42.942Z,12.37
2022-10-30T23:26:24.491Z,12.20
2022-10-30T23:28:52.895Z,12.03
2022-10-30T23:31:21.978Z,12.24
2022-10-30T23:33:49.970Z,12.28
2022-10-30T23:36:16.770Z,12.27
2022-10-30T23:38:43.738Z,12.35
2022-10-30T23:41:10.987Z,11.84
2022-10-30T23:43:37.552Z,11.87
2022-10-30T23:46:04.134Z,11.73
2022-10-30T23:48:30.937Z,11.56
2022-10-30T23:50:57.454Z,11.50
2022-10-30T23:53:24.029Z,11.51
2022-10-30T23:55:54.590Z,11.42
2022-10-30T23:58:21.626Z,11.41
